Time;durP1;ratioP1;P1;durP2;ratioP2;P2;SDS_P1;SDS_P2;PMS_P1;PMS_P2;Temp;Humidity;BMP_temperature;BMP_pressure;BME280_temperature;BME280_humidity;BME280_pressure;Samples;Min_cycle;Max_cycle;Signal;HPM_P1;HPM_P2
2022/01/16 00:00:05;;;;;;;41.45;30.25;;;-0.90;99.90;;;;;;5031109;28;20025;-57
2022/01/16 00:05:04;;;;;;;37.10;27.00;;;-0.80;99.90;;;;;;5011437;28;20507;-58
2022/01/16 00:07:30;;;;;;;36.53;26.75;;;-0.80;99.90;;;;;;5011357;28;20025;-57
2022/01/16 00:09:55;;;;;;;44.22;28.13;;;-0.80;99.90;;;;;;5011493;28;20030;-56
2022/01/16 00:12:23;;;;;;;35.90;27.58;;;-0.70;99.90;;;;;;5011182;28;20076;-57
2022/01/16 00:14:50;;;;;;;41.22;28.00;;;-0.70;99.90;;;;;;5014398;28;20037;-56
2022/01/16 00:17:16;;;;;;;38.65;26.75;;;-0.60;99.90;;;;;;5030944;28;20155;-57
2022/01/16 00:19:42;;;;;;;39.70;27.88;;;-0.60;99.90;;;;;;5030379;28;20116;-58
2022/01/16 00:22:13;;;;;;;39.38;28.17;;;-0.60;99.90;;;;;;5030845;28;20028;-57
2022/01/16 00:24:39;;;;;;;38.70;27.05;;;-0.60;99.90;;;;;;5027067;28;20024;-57
2022/01/16 00:27:05;;;;;;;40.58;28.67;;;-0.50;99.90;;;;;;5029022;28;20066;-56
2022/01/16 00:29:31;;;;;;;42.42;29.42;;;-0.50;99.90;;;;;;5030700;28;20033;-57
2022/01/16 00:31:57;;;;;;;44.08;29.35;;;-0.50;99.90;;;;;;5030722;28;20031;-57
2022/01/16 00:34:22;;;;;;;45.92;29.33;;;-0.50;99.90;;;;;;5030854;28;20070;-57
2022/01/16 00:36:48;;;;;;;41.33;29.05;;;-0.40;99.90;;;;;;5029139;28;20037;-56
2022/01/16 00:39:14;;;;;;;40.58;29.35;;;-0.40;99.90;;;;;;5030583;28;20025;-57
2022/01/16 00:41:40;;;;;;;46.17;31.90;;;-0.30;99.90;;;;;;5030351;28;20029;-58
2022/01/16 00:44:06;;;;;;;54.85;32.80;;;-0.30;99.90;;;;;;5030656;28;20079;-57
2022/01/16 00:46:32;;;;;;;52.05;31.70;;;-0.20;99.90;;;;;;5030403;28;20025;-57
2022/01/16 00:48:58;;;;;;;57.33;34.58;;;-0.20;99.90;;;;;;5022872;28;20140;-56
2022/01/16 00:51:24;;;;;;;53.33;33.30;;;-0.10;99.90;;;;;;5011045;28;20172;-56
2022/01/16 00:53:50;;;;;;;53.28;32.90;;;0.00;99.90;;;;;;5010612;28;20034;-56
2022/01/16 00:56:16;;;;;;;46.10;31.85;;;0.00;99.90;;;;;;5010946;28;20082;-56
2022/01/16 00:58:42;;;;;;;46.97;31.67;;;0.00;99.90;;;;;;5025721;28;20112;-58
2022/01/16 01:01:09;;;;;;;45.95;30.75;;;0.00;99.90;;;;;;5030456;28;20022;-58
2022/01/16 01:03:34;;;;;;;42.17;29.77;;;0.10;99.90;;;;;;5030410;28;20018;-56
2022/01/16 01:06:01;;;;;;;49.22;29.45;;;0.20;99.90;;;;;;5035972;28;20029;-58
2022/01/16 01:08:28;;;;;;;48.20;31.10;;;0.20;99.90;;;;;;5039709;28;20380;-57
2022/01/16 01:10:55;;;;;;;50.20;30.38;;;0.20;99.90;;;;;;5044536;28;20025;-56
2022/01/16 01:13:23;;;;;;;52.92;32.83;;;0.20;99.90;;;;;;5047364;28;20025;-57
2022/01/16 01:15:57;;;;;;;56.60;33.63;;;0.10;99.90;;;;;;5029929;28;20049;-57
2022/01/16 01:18:23;;;;;;;52.55;33.33;;;0.20;99.90;;;;;;5030565;28;20087;-58
2022/01/16 01:20:50;;;;;;;51.83;31.90;;;0.20;99.90;;;;;;5028702;28;20033;-56
2022/01/16 01:23:17;;;;;;;53.70;32.75;;;0.20;99.90;;;;;;5031432;28;20025;-58
2022/01/16 01:25:43;;;;;;;61.88;36.00;;;0.20;99.90;;;;;;5010437;28;20420;-56
2022/01/16 01:28:09;;;;;;;61.13;36.05;;;0.20;99.90;;;;;;5010483;28;20470;-58
2022/01/16 01:30:37;;;;;;;54.40;34.25;;;0.30;99.90;;;;;;5010204;28;20030;-57
2022/01/16 01:33:03;;;;;;;69.47;37.30;;;0.30;99.90;;;;;;5014338;28;20033;-57
2022/01/16 01:35:30;;;;;;;68.15;38.33;;;0.30;99.90;;;;;;5027587;28;20476;-58
2022/01/16 01:37:56;;;;;;;61.85;37.67;;;0.30;99.90;;;;;;5041260;28;20017;-57
2022/01/16 01:40:25;;;;;;;67.35;37.95;;;0.30;99.90;;;;;;5032391;28;20453;-57
2022/01/16 01:51:36;;;;;;;71.35;36.75;;;0.30;99.90;;;;;;5054095;28;20479;-57
2022/01/16 01:54:04;;;;;;;72.15;37.05;;;0.30;99.90;;;;;;5042074;28;20032;-56
2022/01/16 01:56:30;;;;;;;78.30;38.75;;;0.30;99.90;;;;;;5032308;28;20032;-57
2022/01/16 01:58:59;;;;;;;77.68;36.47;;;0.50;99.90;;;;;;5033559;28;20021;-57
2022/01/16 02:01:27;;;;;;;71.47;37.40;;;0.50;99.90;;;;;;5033532;28;20384;-55
2022/01/16 02:03:53;;;;;;;73.25;38.13;;;0.50;99.90;;;;;;5033693;28;20409;-58
2022/01/16 02:06:24;;;;;;;72.85;37.83;;;0.50;99.90;;;;;;5033615;28;20116;-56
2022/01/16 02:08:55;;;;;;;73.10;38.58;;;0.40;99.90;;;;;;5033149;28;20029;-55
2022/01/16 02:11:26;;;;;;;75.82;39.15;;;0.30;99.90;;;;;;5033109;28;20021;-57
2022/01/16 02:28:21;;;;;;;95.57;34.67;;;0.30;99.90;;;;;;5033234;28;20406;-57
2022/01/16 02:31:36;;;;;;;74.03;36.22;;;0.30;99.90;;;;;;5045707;28;20063;-57
2022/01/16 02:36:43;;;;;;;85.55;38.33;;;0.20;99.90;;;;;;5052861;28;20122;-57
2022/01/16 02:39:12;;;;;;;106.72;36.83;;;0.20;99.90;;;;;;5038782;28;20030;-58
2022/01/16 02:41:38;;;;;;;74.15;35.40;;;0.00;99.90;;;;;;5032471;28;20021;-58
2022/01/16 02:44:16;;;;;;;75.28;37.72;;;0.00;99.90;;;;;;5032845;28;20075;-58
2022/01/16 02:46:44;;;;;;;85.28;39.95;;;0.00;99.90;;;;;;5032715;28;20021;-55
2022/01/16 02:49:24;;;;;;;111.40;37.70;;;0.00;99.90;;;;;;5031553;28;20037;-56
2022/01/16 02:51:58;;;;;;;66.03;36.33;;;-0.10;99.90;;;;;;5032445;28;20029;-57
2022/01/16 02:54:26;;;;;;;73.97;38.97;;;-0.10;99.90;;;;;;5032504;28;20132;-55
2022/01/16 02:56:52;;;;;;;61.58;35.40;;;0.00;99.90;;;;;;5032613;28;20049;-58
2022/01/16 02:59:18;;;;;;;73.72;39.10;;;0.10;99.90;;;;;;5032619;28;20435;-54
2022/01/16 03:01:45;;;;;;;79.63;40.28;;;0.00;99.90;;;;;;5032198;28;20384;-54
2022/01/16 03:04:11;;;;;;;96.68;35.47;;;0.00;99.90;;;;;;5032366;28;20076;-56
2022/01/16 03:06:37;;;;;;;61.53;32.53;;;-0.10;99.90;;;;;;5032257;28;20033;-56
2022/01/16 03:09:07;;;;;;;105.78;36.20;;;0.00;99.90;;;;;;5032004;28;20064;-56
2022/01/16 03:11:39;;;;;;;153.82;36.17;;;-0.10;99.90;;;;;;5030927;28;20108;-56
2022/01/16 03:14:10;;;;;;;147.70;34.67;;;-0.20;99.90;;;;;;5032499;28;20125;-56
2022/01/16 03:16:37;;;;;;;53.60;31.63;;;-0.30;99.90;;;;;;5031959;28;20025;-58
2022/01/16 03:22:03;;;;;;;56.22;33.35;;;-0.30;99.90;;;;;;5031959;28;20519;-57
2022/01/16 03:24:39;;;;;;;81.38;35.25;;;-0.30;99.90;;;;;;5032082;28;20039;-57
2022/01/16 03:27:08;;;;;;;77.15;37.30;;;-0.30;99.90;;;;;;5031831;28;20317;-57
2022/01/16 03:29:35;;;;;;;59.15;32.25;;;-0.30;99.90;;;;;;5028577;28;20401;-55
2022/01/16 03:32:04;;;;;;;122.88;33.17;;;-0.20;99.90;;;;;;5012053;28;20525;-56
2022/01/16 03:34:29;;;;;;;101.03;32.30;;;-0.30;99.90;;;;;;5012215;28;20026;-56
2022/01/16 03:36:55;;;;;;;80.28;35.92;;;-0.30;99.90;;;;;;5012262;28;20535;-55
2022/01/16 03:39:21;;;;;;;83.45;33.53;;;-0.40;99.90;;;;;;5013118;28;20073;-56
2022/01/16 03:41:47;;;;;;;144.32;36.95;;;-0.40;99.90;;;;;;5031182;28;20473;-53
2022/01/16 03:44:12;;;;;;;104.95;37.55;;;-0.40;99.90;;;;;;5018932;28;20109;-57
2022/01/16 03:46:41;;;;;;;134.70;38.30;;;-0.40;99.90;;;;;;5017617;28;20031;-56
2022/01/16 03:49:11;;;;;;;62.63;36.22;;;-0.40;99.90;;;;;;5029910;28;20121;-56
2022/01/16 03:51:39;;;;;;;74.50;36.63;;;-0.40;99.90;;;;;;5029695;28;20049;-57
2022/01/16 03:54:06;;;;;;;95.38;38.22;;;-0.30;99.90;;;;;;5030445;28;20060;-58
2022/01/16 03:56:32;;;;;;;118.72;35.85;;;-0.30;99.90;;;;;;5028145;28;20136;-57
2022/01/16 03:58:58;;;;;;;159.57;37.20;;;-0.40;99.90;;;;;;5029277;28;20052;-54
2022/01/16 04:01:24;;;;;;;83.90;39.22;;;-0.30;99.90;;;;;;5011863;28;20034;-57
2022/01/16 04:03:53;;;;;;;131.18;40.17;;;-0.30;99.90;;;;;;5027282;28;20021;-55
2022/01/16 04:06:20;;;;;;;154.88;41.67;;;-0.30;99.90;;;;;;5030978;28;20083;-56
2022/01/16 04:08:50;;;;;;;85.00;40.00;;;-0.30;99.90;;;;;;5030782;28;20496;-55
2022/01/16 04:11:16;;;;;;;71.95;35.47;;;-0.20;99.90;;;;;;5030748;28;20021;-56
2022/01/16 04:13:49;;;;;;;82.82;35.13;;;-0.30;99.90;;;;;;5030658;28;20105;-56
2022/01/16 04:16:16;;;;;;;;;;;-0.30;99.90;;;;;;5030116;28;20037;-56
2022/01/16 04:18:42;;;;;;;82.15;35.38;;;-0.40;99.90;;;;;;5021412;28;20276;-56
2022/01/16 04:21:07;;;;;;;64.53;33.35;;;-0.40;99.90;;;;;;5011096;28;20026;-57
2022/01/16 04:23:33;;;;;;;83.20;39.67;;;-0.40;99.90;;;;;;5012013;28;20113;-55
2022/01/16 04:25:59;;;;;;;73.55;36.35;;;-0.40;99.90;;;;;;5011218;28;20029;-57
2022/01/16 04:28:25;;;;;;;92.00;37.88;;;-0.40;99.90;;;;;;5011050;28;20373;-57
2022/01/16 04:30:52;;;;;;;82.80;36.90;;;-0.30;99.90;;;;;;5012146;28;20504;-57
2022/01/16 04:33:18;;;;;;;102.20;37.33;;;-0.30;99.90;;;;;;5024989;28;20021;-56
2022/01/16 04:35:45;;;;;;;63.10;34.63;;;-0.30;99.90;;;;;;5012588;28;20524;-56
2022/01/16 04:38:10;;;;;;;127.90;35.13;;;-0.30;99.90;;;;;;5023409;28;20036;-57
2022/01/16 04:43:47;;;;;;;287.70;39.40;;;-0.20;99.90;;;;;;5028676;28;20484;-57
2022/01/16 04:46:12;;;;;;;169.73;35.33;;;-0.30;99.90;;;;;;5011058;28;20348;-56
2022/01/16 04:48:38;;;;;;;179.02;38.60;;;-0.30;99.90;;;;;;5010752;28;20046;-57
2022/01/16 04:51:04;;;;;;;138.07;39.00;;;-0.30;99.90;;;;;;5022793;28;20037;-56
2022/01/16 04:53:29;;;;;;;126.05;38.33;;;-0.30;99.90;;;;;;5022592;28;20318;-55
2022/01/16 04:55:55;;;;;;;145.52;38.80;;;-0.30;99.90;;;;;;5021509;28;20037;-56
2022/01/16 04:58:22;;;;;;;234.02;42.65;;;-0.30;99.90;;;;;;5030266;28;20032;-57
2022/01/16 05:00:48;;;;;;;165.40;39.80;;;-0.30;99.90;;;;;;5030010;28;20030;-55
2022/01/16 05:03:14;;;;;;;213.60;40.75;;;-0.30;99.90;;;;;;5014717;28;20033;-55
2022/01/16 05:05:40;;;;;;;182.60;37.97;;;-0.30;99.90;;;;;;5024213;28;20025;-56
2022/01/16 05:08:05;;;;;;;70.10;35.33;;;-0.50;99.90;;;;;;5012610;28;20116;-57
2022/01/16 05:10:32;;;;;;;148.45;38.25;;;-0.40;99.90;;;;;;5010442;28;20393;-56
2022/01/16 05:13:15;;;;;;;230.98;36.78;;;-0.30;99.90;;;;;;5011199;28;20104;-54
2022/01/16 05:18:25;;;;;;;432.85;48.28;;;-0.30;99.90;;;;;;5029732;28;20044;-56
2022/01/16 05:20:51;;;;;;;120.47;43.72;;;-0.40;99.90;;;;;;5015184;28;20541;-57
2022/01/16 05:23:16;;;;;;;103.28;39.72;;;-0.30;99.90;;;;;;5010404;28;20033;-57
2022/01/16 05:25:42;;;;;;;106.80;36.92;;;-0.40;99.90;;;;;;5010258;28;20471;-56
2022/01/16 05:28:08;;;;;;;105.80;35.50;;;-0.30;99.90;;;;;;5010283;28;20026;-56
2022/01/16 05:30:33;;;;;;;181.63;38.63;;;-0.30;99.90;;;;;;5009791;28;20029;-57
2022/01/16 05:32:59;;;;;;;108.47;37.55;;;-0.40;99.90;;;;;;5007219;28;20037;-57
2022/01/16 05:35:24;;;;;;;307.30;53.47;;;-0.40;99.90;;;;;;5028301;28;20462;-54
2022/01/16 05:37:50;;;;;;;114.47;45.53;;;-0.50;99.90;;;;;;5021074;28;20465;-55
2022/01/16 05:40:16;;;;;;;123.88;37.20;;;-0.50;99.90;;;;;;5009167;28;20030;-56
2022/01/16 05:42:41;;;;;;;184.02;38.63;;;-0.50;99.90;;;;;;5018669;28;20018;-57
2022/01/16 05:45:07;;;;;;;91.78;37.53;;;-0.50;99.90;;;;;;5029621;28;20480;-56
2022/01/16 05:47:33;;;;;;;117.50;36.03;;;-0.40;99.90;;;;;;5030075;28;20476;-57
2022/01/16 05:49:59;;;;;;;256.95;40.60;;;-0.40;99.90;;;;;;5022357;28;20037;-57
2022/01/16 05:52:24;;;;;;;166.13;37.20;;;-0.40;99.90;;;;;;5027834;28;20072;-57
2022/01/16 05:54:50;;;;;;;124.07;34.85;;;-0.40;99.90;;;;;;5029353;28;20551;-57
2022/01/16 05:57:16;;;;;;;119.13;36.35;;;-0.40;99.90;;;;;;5029804;28;20029;-57
2022/01/16 05:59:42;;;;;;;243.32;36.38;;;-0.40;99.90;;;;;;5015008;28;20045;-57
2022/01/16 06:02:07;;;;;;;71.25;32.65;;;-0.50;99.90;;;;;;5009974;28;20022;-55
2022/01/16 06:04:33;;;;;;;97.63;32.38;;;-0.50;99.90;;;;;;5019197;28;20025;-57
2022/01/16 06:06:59;;;;;;;80.35;32.63;;;-0.40;99.90;;;;;;5029446;28;20025;-57
2022/01/16 06:09:26;;;;;;;101.90;35.35;;;-0.50;99.90;;;;;;5029665;28;20021;-56
2022/01/16 06:11:53;;;;;;;59.42;31.60;;;-0.40;99.90;;;;;;5013703;28;20371;-58
2022/01/16 06:14:20;;;;;;;119.55;29.33;;;-0.40;99.90;;;;;;5009876;28;20049;-57
2022/01/16 06:16:46;;;;;;;141.48;30.00;;;-0.30;99.90;;;;;;5010079;28;20477;-56
2022/01/16 06:19:11;;;;;;;122.88;32.20;;;-0.40;99.90;;;;;;5023599;28;20349;-55
2022/01/16 06:21:37;;;;;;;267.58;42.33;;;-0.40;99.90;;;;;;5022459;28;20057;-57
2022/01/16 06:24:03;;;;;;;106.28;36.35;;;-0.60;99.90;;;;;;5013356;28;20469;-56
2022/01/16 06:26:30;;;;;;;122.07;35.42;;;-0.70;99.90;;;;;;5013489;28;20022;-57
2022/01/16 06:28:56;;;;;;;86.20;34.42;;;-0.70;99.90;;;;;;5014150;28;20017;-55
2022/01/16 06:31:21;;;;;;;82.93;37.00;;;-0.70;99.90;;;;;;5019904;28;20091;-58
2022/01/16 06:33:47;;;;;;;82.40;32.08;;;-0.70;99.90;;;;;;5022675;28;20033;-57
2022/01/16 06:36:13;;;;;;;163.27;36.28;;;-0.70;99.90;;;;;;5013219;28;20038;-56
2022/01/16 06:38:38;;;;;;;99.55;30.42;;;-0.70;99.90;;;;;;5013003;28;20027;-58
2022/01/16 06:41:04;;;;;;;89.82;32.53;;;-0.70;99.90;;;;;;5013071;28;20033;-57
2022/01/16 06:43:30;;;;;;;171.45;36.92;;;-0.60;99.90;;;;;;5013936;28;20481;-56
2022/01/16 06:45:56;;;;;;;163.07;35.17;;;-0.70;99.90;;;;;;5013975;28;20034;-58
2022/01/16 06:48:22;;;;;;;106.47;42.38;;;-0.70;99.90;;;;;;5015179;28;20123;-58
2022/01/16 06:50:48;;;;;;;81.80;32.42;;;-0.70;99.90;;;;;;5028811;28;20040;-57
2022/01/16 06:53:13;;;;;;;79.90;28.48;;;-0.70;99.90;;;;;;5012751;28;20029;-57
2022/01/16 06:55:39;;;;;;;112.63;29.20;;;-0.60;99.90;;;;;;5012827;28;20062;-57
2022/01/16 06:58:05;;;;;;;126.05;27.70;;;-0.50;99.90;;;;;;5012830;28;20370;-56
2022/01/16 07:00:30;;;;;;;257.30;33.83;;;-0.60;99.90;;;;;;5013564;28;20061;-57
2022/01/16 07:02:56;;;;;;;256.75;55.40;;;-0.80;99.90;;;;;;5016149;28;20030;-57
2022/01/16 07:05:22;;;;;;;81.13;37.80;;;-0.90;99.90;;;;;;5030831;28;20507;-56
2022/01/16 07:07:47;;;;;;;144.10;42.35;;;-0.90;99.90;;;;;;5032350;28;20036;-57
2022/01/16 07:10:13;;;;;;;139.30;39.35;;;-0.80;99.90;;;;;;5032113;28;20037;-57
2022/01/16 07:12:39;;;;;;;109.60;30.27;;;-0.80;99.90;;;;;;5024624;28;20022;-55
2022/01/16 07:15:05;;;;;;;87.85;32.95;;;-0.80;99.90;;;;;;5012172;28;20045;-55
2022/01/16 07:17:30;;;;;;;122.35;26.70;;;-0.70;99.90;;;;;;5012526;28;20179;-57
2022/01/16 07:19:56;;;;;;;59.78;22.33;;;-0.80;99.90;;;;;;5010962;28;20516;-56
2022/01/16 07:22:23;;;;;;;84.43;19.75;;;-0.70;99.90;;;;;;5014470;28;20057;-56
2022/01/16 07:24:52;;;;;;;242.02;23.50;;;-0.60;99.90;;;;;;5027169;28;20065;-56
2022/01/16 07:27:18;;;;;;;78.70;19.73;;;-0.70;99.90;;;;;;5032084;28;20091;-57
2022/01/16 07:29:44;;;;;;;250.90;24.42;;;-0.80;99.90;;;;;;5029081;28;20041;-57
2022/01/16 07:32:10;;;;;;;308.85;32.05;;;-0.80;99.90;;;;;;5019193;28;20030;-57
2022/01/16 07:34:35;;;;;;;139.43;24.25;;;-1.00;99.90;;;;;;5031936;28;20381;-56
2022/01/16 07:37:01;;;;;;;253.82;26.83;;;-1.00;99.90;;;;;;5031810;28;20049;-57
2022/01/16 07:39:26;;;;;;;235.70;29.55;;;-1.10;99.90;;;;;;5019498;28;20482;-56
2022/01/16 07:41:52;;;;;;;189.73;42.90;;;-1.10;99.90;;;;;;5012827;28;20088;-55
2022/01/16 07:44:18;;;;;;;154.73;40.67;;;-1.00;99.90;;;;;;5019421;28;20017;-54
2022/01/16 07:46:43;;;;;;;48.05;27.48;;;-1.00;99.90;;;;;;5011966;28;20484;-57
2022/01/16 07:49:09;;;;;;;59.38;30.13;;;-0.90;99.90;;;;;;5016431;28;20104;-57
2022/01/16 07:51:35;;;;;;;44.45;20.85;;;-0.90;99.90;;;;;;5020397;28;20532;-57
2022/01/16 07:54:00;;;;;;;43.85;21.05;;;-0.70;99.90;;;;;;5011519;28;20036;-58
2022/01/16 07:56:26;;;;;;;89.07;26.17;;;-0.60;99.90;;;;;;5023067;28;20091;-57
2022/01/16 07:58:52;;;;;;;46.00;24.30;;;-0.70;99.90;;;;;;5030760;28;20026;-56
2022/01/16 08:01:17;;;;;;;48.58;21.25;;;-0.70;99.90;;;;;;5028255;28;20041;-56
2022/01/16 08:03:43;;;;;;;132.23;25.00;;;-0.60;99.90;;;;;;5014841;28;20026;-57
2022/01/16 08:06:10;;;;;;;66.55;23.60;;;-0.80;99.90;;;;;;5011180;28;20026;-57
2022/01/16 08:08:37;;;;;;;42.55;23.40;;;-0.90;99.90;;;;;;5011428;28;20377;-58
2022/01/16 08:11:03;;;;;;;32.78;20.02;;;-1.00;99.90;;;;;;5011412;28;20014;-56
2022/01/16 08:13:28;;;;;;;37.75;19.23;;;-0.80;99.90;;;;;;5015596;28;20036;-57
2022/01/16 08:15:54;;;;;;;57.13;19.80;;;-0.80;99.90;;;;;;5022754;28;20049;-56
2022/01/16 08:18:19;;;;;;;42.25;19.00;;;-0.80;99.90;;;;;;5014383;28;20247;-56
2022/01/16 08:20:45;;;;;;;36.33;18.15;;;-0.80;99.90;;;;;;5030802;28;20017;-56
2022/01/16 08:23:11;;;;;;;29.73;17.90;;;-0.80;99.90;;;;;;5030819;28;20508;-57
2022/01/16 08:25:37;;;;;;;38.70;20.05;;;-0.80;99.90;;;;;;5025452;28;20149;-56
2022/01/16 08:28:03;;;;;;;29.33;18.52;;;-0.80;99.90;;;;;;5011006;28;20092;-56
2022/01/16 08:30:28;;;;;;;31.85;18.15;;;-0.70;99.90;;;;;;5012272;28;20037;-57
2022/01/16 08:32:54;;;;;;;24.83;16.48;;;-0.60;99.90;;;;;;5023953;28;20120;-56
2022/01/16 08:35:20;;;;;;;39.88;19.58;;;-0.50;99.90;;;;;;5010771;28;20041;-57
2022/01/16 08:37:46;;;;;;;29.00;18.20;;;-0.60;99.90;;;;;;5010455;28;20021;-56
2022/01/16 08:40:12;;;;;;;33.80;18.73;;;-0.50;99.90;;;;;;5010551;28;20049;-56
2022/01/16 08:42:40;;;;;;;28.40;18.52;;;-0.50;99.90;;;;;;5011788;28;20105;-57
2022/01/16 08:45:07;;;;;;;30.23;17.92;;;-0.60;99.90;;;;;;5010842;28;20033;-56
2022/01/16 08:47:32;;;;;;;27.45;17.73;;;-0.40;99.90;;;;;;5027551;28;20033;-57
2022/01/16 08:49:59;;;;;;;31.45;17.95;;;-0.30;99.90;;;;;;5029925;28;20040;-56
2022/01/16 08:52:28;;;;;;;34.85;17.77;;;-0.10;99.90;;;;;;5030345;28;20037;-56
2022/01/16 08:54:53;;;;;;;31.67;19.05;;;0.10;99.90;;;;;;5026586;28;20389;-58
2022/01/16 08:57:19;;;;;;;32.45;19.23;;;0.10;99.90;;;;;;5010779;28;20030;-56
2022/01/16 08:59:45;;;;;;;27.73;18.08;;;0.10;99.90;;;;;;5010301;28;20037;-56
2022/01/16 09:02:11;;;;;;;35.22;20.10;;;0.30;99.90;;;;;;5013763;28;20057;-56
2022/01/16 09:04:36;;;;;;;38.28;24.52;;;0.30;99.90;;;;;;5029933;28;20030;-57
2022/01/16 09:07:02;;;;;;;32.67;20.02;;;0.20;99.90;;;;;;5029915;28;20032;-55
2022/01/16 09:09:30;;;;;;;39.58;21.10;;;0.10;99.90;;;;;;5030073;28;20389;-57
2022/01/16 09:11:55;;;;;;;32.35;20.67;;;0.40;99.90;;;;;;5030090;28;20025;-56
2022/01/16 09:14:21;;;;;;;38.85;22.45;;;0.40;99.90;;;;;;5030059;28;20053;-56
2022/01/16 09:16:47;;;;;;;29.65;19.27;;;0.50;99.90;;;;;;5022820;28;20087;-57
2022/01/16 09:19:13;;;;;;;33.53;19.65;;;0.60;99.90;;;;;;5019042;28;20484;-56
2022/01/16 09:21:38;;;;;;;28.90;18.00;;;0.70;99.90;;;;;;5029680;28;20029;-57
2022/01/16 09:24:04;;;;;;;30.70;18.33;;;0.80;99.90;;;;;;5030080;28;20095;-57
2022/01/16 09:26:30;;;;;;;27.38;18.30;;;0.80;99.90;;;;;;5028127;28;20383;-56
2022/01/16 09:28:56;;;;;;;31.83;20.63;;;0.80;99.90;;;;;;5028155;28;20022;-57
2022/01/16 09:31:21;;;;;;;27.08;17.70;;;0.80;99.90;;;;;;5023478;28;20030;-56
2022/01/16 09:33:47;;;;;;;25.50;16.83;;;0.90;99.90;;;;;;5023762;28;20026;-55
2022/01/16 09:36:13;;;;;;;24.23;16.83;;;1.00;99.90;;;;;;5009866;28;20022;-56
2022/01/16 09:38:39;;;;;;;22.52;15.88;;;1.10;99.90;;;;;;5008733;28;20076;-55
2022/01/16 09:41:05;;;;;;;25.00;16.50;;;1.30;99.90;;;;;;5010045;28;20026;-56
2022/01/16 09:43:35;;;;;;;19.27;14.10;;;1.70;99.90;;;;;;5021122;28;20030;-57
2022/01/16 09:46:02;;;;;;;18.98;13.68;;;2.60;99.90;;;;;;5026973;28;20021;-56
2022/01/16 09:48:28;;;;;;;18.17;12.40;;;3.60;99.90;;;;;;5010045;28;20037;-56
2022/01/16 09:50:53;;;;;;;15.50;11.80;;;4.70;99.90;;;;;;5027569;28;20079;-58
2022/01/16 09:53:22;;;;;;;16.20;11.90;;;4.80;99.90;;;;;;5031789;28;20033;-56
2022/01/16 09:55:48;;;;;;;18.23;12.35;;;4.30;99.90;;;;;;5032044;28;20075;-58
2022/01/16 09:58:13;;;;;;;14.85;12.50;;;4.50;99.90;;;;;;5022176;28;20124;-57
2022/01/16 10:00:39;;;;;;;25.27;13.63;;;4.20;99.90;;;;;;5019240;28;20100;-58
2022/01/16 10:03:05;;;;;;;12.52;10.65;;;5.10;99.90;;;;;;5028100;28;20041;-56
2022/01/16 10:05:36;;;;;;;17.33;10.60;;;5.80;99.90;;;;;;5021815;28;20021;-56
2022/01/16 10:08:08;;;;;;;12.50;9.13;;;5.40;99.90;;;;;;5033307;28;20020;-57
2022/01/16 10:10:39;;;;;;;12.88;9.80;;;4.50;99.90;;;;;;5017063;28;20061;-57
2022/01/16 10:13:54;;;;;;;15.35;11.02;;;5.00;99.90;;;;;;5034217;28;20029;-58
2022/01/16 10:16:24;;;;;;;;;;;4.90;99.90;;;;;;5018960;28;20124;-57
2022/01/16 10:18:49;;;;;;;11.80;9.43;;;6.20;99.90;;;;;;5014409;28;20004;-57
2022/01/16 10:21:31;;;;;;;12.23;9.32;;;6.50;99.90;;;;;;5014736;28;20101;-58
2022/01/16 10:23:56;;;;;;;10.63;8.88;;;9.00;96.90;;;;;;5014267;28;20021;-58
2022/01/16 10:26:23;;;;;;;10.05;8.82;;;8.80;91.60;;;;;;5013989;28;20461;-57
2022/01/16 10:28:50;;;;;;;10.80;8.77;;;9.90;91.30;;;;;;5020625;28;20025;-58
2022/01/16 10:31:22;;;;;;;11.52;8.88;;;10.10;86.90;;;;;;5034436;28;20076;-57
2022/01/16 10:33:49;;;;;;;14.38;8.68;;;10.00;87.00;;;;;;5032061;28;20025;-57
2022/01/16 10:36:34;;;;;;;13.13;8.80;;;10.20;85.50;;;;;;5020453;28;20036;-58
2022/01/16 10:39:12;;;;;;;15.05;10.38;;;10.60;81.50;;;;;;5033652;28;20104;-55
2022/01/16 10:41:38;;;;;;;16.15;10.30;;;9.90;83.20;;;;;;5020000;28;20645;-57
2022/01/16 10:44:23;;;;;;;12.77;9.93;;;9.70;85.30;;;;;;5023329;28;20026;-57
2022/01/16 10:46:49;;;;;;;15.05;10.82;;;9.40;83.80;;;;;;5033465;28;20021;-59
2022/01/16 10:49:19;;;;;;;13.25;9.77;;;8.80;85.30;;;;;;5013982;28;20508;-59
2022/01/16 10:52:09;;;;;;;12.63;10.40;;;9.50;83.40;;;;;;5013236;28;20030;-57
2022/01/16 10:54:38;;;;;;;12.60;9.70;;;10.30;80.10;;;;;;5013865;28;20076;-56
2022/01/16 10:57:19;;;;;;;12.77;9.70;;;10.50;78.70;;;;;;5026454;28;20021;-56
2022/01/16 10:59:45;;;;;;;11.30;8.77;;;10.50;77.40;;;;;;5031628;28;20071;-58
2022/01/16 11:02:11;;;;;;;13.38;9.95;;;11.20;74.70;;;;;;5029752;28;20032;-58
2022/01/16 11:04:37;;;;;;;16.67;9.93;;;11.10;73.80;;;;;;5026801;28;20655;-58
2022/01/16 11:07:04;;;;;;;13.27;10.02;;;11.10;74.40;;;;;;5021664;28;20038;-59
2022/01/16 11:09:31;;;;;;;14.95;10.90;;;11.50;71.10;;;;;;5022404;28;20456;-58
2022/01/16 11:11:59;;;;;;;15.18;10.55;;;11.80;69.40;;;;;;5020675;28;20409;-58
2022/01/16 11:14:26;;;;;;;17.00;12.38;;;12.30;69.10;;;;;;5022335;28;20132;-57
2022/01/16 11:16:54;;;;;;;14.40;10.57;;;12.30;67.10;;;;;;5040395;28;20444;-57
2022/01/16 11:19:22;;;;;;;16.67;11.43;;;11.40;68.60;;;;;;5042608;28;21633;-58
2022/01/16 11:21:51;;;;;;;14.95;10.85;;;11.40;67.30;;;;;;5042461;28;20025;-59
2022/01/16 11:26:44;;;;;;;14.77;11.45;;;11.60;65.60;;;;;;5040194;28;20033;-57
2022/01/16 11:29:11;;;;;;;15.68;11.38;;;11.70;66.00;;;;;;5041563;28;22472;-58
2022/01/16 11:31:37;;;;;;;17.23;12.13;;;11.90;64.90;;;;;;5040038;28;20026;-57
2022/01/16 11:34:03;;;;;;;17.00;12.32;;;12.00;65.10;;;;;;5021672;28;20033;-58
2022/01/16 11:36:29;;;;;;;14.75;11.10;;;11.30;65.90;;;;;;5021999;28;20473;-58
2022/01/16 11:38:58;;;;;;;22.02;12.45;;;12.10;63.70;;;;;;5009439;28;20474;-57
2022/01/16 11:41:31;;;;;;;18.85;11.13;;;11.90;63.70;;;;;;5013941;28;20109;-59
2022/01/16 11:43:58;;;;;;;15.98;11.00;;;11.90;62.50;;;;;;5002030;28;20041;-58
2022/01/16 11:46:32;;;;;;;16.00;11.90;;;12.00;62.80;;;;;;5021218;28;20022;-58
2022/01/16 11:48:58;;;;;;;16.60;12.00;;;11.80;62.10;;;;;;5021723;28;20025;-58
2022/01/16 11:51:33;;;;;;;15.32;11.23;;;11.70;62.20;;;;;;5021724;28;20341;-59
2022/01/16 11:53:58;;;;;;;12.80;10.13;;;12.10;62.80;;;;;;5002587;28;20034;-59
2022/01/16 11:56:40;;;;;;;13.10;9.60;;;11.30;62.10;;;;;;5021187;28;20040;-59
2022/01/16 11:59:20;;;;;;;14.18;10.85;;;13.00;59.30;;;;;;5020069;28;20171;-59
2022/01/16 12:02:07;;;;;;;13.57;10.00;;;11.80;60.00;;;;;;5020107;28;20404;-57
2022/01/16 12:04:33;;;;;;;15.60;10.73;;;13.20;58.40;;;;;;5021501;28;20106;-57
2022/01/16 12:07:13;;;;;;;13.18;10.30;;;11.20;60.80;;;;;;5022185;28;20108;-59
2022/01/16 12:12:16;;;;;;;14.65;10.63;;;11.30;60.40;;;;;;5021309;28;20392;-59
2022/01/16 12:14:57;;;;;;;14.82;11.00;;;11.80;60.30;;;;;;5020750;28;20060;-59
2022/01/16 12:17:33;;;;;;;12.68;10.27;;;11.50;60.40;;;;;;5021177;28;20041;-60
2022/01/16 12:20:12;;;;;;;14.55;10.60;;;13.20;56.40;;;;;;5021831;28;20029;-58
2022/01/16 12:22:46;;;;;;;12.38;9.48;;;12.90;56.80;;;;;;5014239;28;20413;-59
2022/01/16 12:25:24;;;;;;;11.02;9.02;;;9.80;63.70;;;;;;5009661;28;20022;-59
2022/01/16 12:28:02;;;;;;;12.43;8.82;;;11.30;61.00;;;;;;5001951;28;20591;-59
2022/01/16 12:30:50;;;;;;;12.63;10.20;;;12.00;60.00;;;;;;5021499;28;20033;-58
2022/01/16 12:33:15;;;;;;;12.65;9.48;;;10.60;61.90;;;;;;5017983;28;20767;-59
2022/01/16 12:35:41;;;;;;;13.93;9.80;;;12.00;60.00;;;;;;5020888;28;20034;-58
2022/01/16 12:38:07;;;;;;;11.68;9.13;;;11.20;60.60;;;;;;5021222;28;20484;-59
2022/01/16 12:40:33;;;;;;;11.88;8.48;;;12.00;59.50;;;;;;5009294;28;20040;-59
2022/01/16 12:43:04;;;;;;;13.38;9.82;;;13.10;57.50;;;;;;5002677;28;20385;-59
2022/01/16 12:45:35;;;;;;;17.02;11.05;;;13.70;57.20;;;;;;5015661;28;20065;-60
2022/01/16 12:48:01;;;;;;;14.63;9.65;;;14.40;55.90;;;;;;5020284;28;20022;-59
2022/01/16 12:50:28;;;;;;;17.08;10.13;;;14.20;53.80;;;;;;5020167;28;20481;-59
2022/01/16 12:52:54;;;;;;;14.77;10.73;;;13.30;54.20;;;;;;5020353;28;20037;-59
2022/01/16 12:55:28;;;;;;;15.50;11.02;;;13.10;55.20;;;;;;5020956;28;20037;-59
2022/01/16 12:57:54;;;;;;;16.85;12.50;;;12.70;56.10;;;;;;5019545;28;20068;-59
2022/01/16 13:00:20;;;;;;;11.63;8.90;;;12.90;55.60;;;;;;5010974;28;20052;-59
2022/01/16 13:02:53;;;;;;;21.23;14.23;;;12.70;56.20;;;;;;5005552;28;20022;-59
2022/01/16 13:05:20;;;;;;;17.15;11.27;;;12.00;57.60;;;;;;5018163;28;20076;-59
2022/01/16 13:07:46;;;;;;;18.73;11.20;;;12.50;56.10;;;;;;5004087;28;20116;-59
2022/01/16 13:10:11;;;;;;;23.88;13.30;;;11.40;58.60;;;;;;5017020;28;20101;-57
2022/01/16 13:12:37;;;;;;;19.42;12.50;;;11.10;58.00;;;;;;5002201;28;20121;-59